sensor_id;sensor_type;location;lat;lon;timestamp;temperature;humidity
18101;DHT22;9177;49.156;8.142;2024-03-22T00:02:15;19.20;94.40
18101;DHT22;9177;49.156;8.142;2024-03-22T00:04:42;19.20;94.40
18101;DHT22;9177;49.156;8.142;2024-03-22T00:07:08;19.20;94.40
18101;DHT22;9177;49.156;8.142;2024-03-22T00:09:35;19.20;94.70
18101;DHT22;9177;49.156;8.142;2024-03-22T00:12:01;19.20;94.40
18101;DHT22;9177;49.156;8.142;2024-03-22T00:14:29;19.20;94.40
18101;DHT22;9177;49.156;8.142;2024-03-22T00:16:55;19.20;94.40
18101;DHT22;9177;49.156;8.142;2024-03-22T00:19:22;19.20;94.40
18101;DHT22;9177;49.156;8.142;2024-03-22T00:21:48;19.20;94.30
18101;DHT22;9177;49.156;8.142;2024-03-22T00:24:15;19.20;94.30
18101;DHT22;9177;49.156;8.142;2024-03-22T00:26:40;19.20;94.30
18101;DHT22;9177;49.156;8.142;2024-03-22T00:29:07;19.10;94.30
18101;DHT22;9177;49.156;8.142;2024-03-22T00:31:35;19.20;94.30
18101;DHT22;9177;49.156;8.142;2024-03-22T00:34:01;19.10;94.30
18101;DHT22;9177;49.156;8.142;2024-03-22T00:36:27;19.10;94.30
18101;DHT22;9177;49.156;8.142;2024-03-22T00:38:54;19.10;94.30
18101;DHT22;9177;49.156;8.142;2024-03-22T00:41:20;19.20;94.30
18101;DHT22;9177;49.156;8.142;2024-03-22T00:43:47;19.10;94.20
18101;DHT22;9177;49.156;8.142;2024-03-22T00:46:13;19.10;94.20
18101;DHT22;9177;49.156;8.142;2024-03-22T00:48:41;19.10;94.20
18101;DHT22;9177;49.156;8.142;2024-03-22T00:51:07;19.10;94.60
18101;DHT22;9177;49.156;8.142;2024-03-22T00:53:33;19.10;94.20
18101;DHT22;9177;49.156;8.142;2024-03-22T00:55:59;19.10;94.20
18101;DHT22;9177;49.156;8.142;2024-03-22T00:58:27;19.10;94.20
18101;DHT22;9177;49.156;8.142;2024-03-22T01:00:53;19.10;94.20
18101;DHT22;9177;49.156;8.142;2024-03-22T01:03:20;19.10;94.20
18101;DHT22;9177;49.156;8.142;2024-03-22T01:05:47;19.00;94.10
18101;DHT22;9177;49.156;8.142;2024-03-22T01:08:14;19.10;94.10
18101;DHT22;9177;49.156;8.142;2024-03-22T01:10:40;19.00;94.10
18101;DHT22;9177;49.156;8.142;2024-03-22T01:13:08;19.00;94.00
18101;DHT22;9177;49.156;8.142;2024-03-22T01:15:33;19.10;94.10
18101;DHT22;9177;49.156;8.142;2024-03-22T01:18:01;19.00;94.10
18101;DHT22;9177;49.156;8.142;2024-03-22T01:20:27;19.00;94.10
18101;DHT22;9177;49.156;8.142;2024-03-22T01:22:55;19.10;94.10
18101;DHT22;9177;49.156;8.142;2024-03-22T01:25:21;19.10;94.00
18101;DHT22;9177;49.156;8.142;2024-03-22T01:27:50;19.00;94.00
18101;DHT22;9177;49.156;8.142;2024-03-22T01:30:16;19.00;94.00
18101;DHT22;9177;49.156;8.142;2024-03-22T01:32:43;19.00;94.00
18101;DHT22;9177;49.156;8.142;2024-03-22T01:35:09;19.00;94.00
18101;DHT22;9177;49.156;8.142;2024-03-22T01:37:36;19.00;94.00
18101;DHT22;9177;49.156;8.142;2024-03-22T01:40:05;19.00;94.00
18101;DHT22;9177;49.156;8.142;2024-03-22T01:42:32;19.00;94.00
18101;DHT22;9177;49.156;8.142;2024-03-22T01:44:57;19.00;94.00
18101;DHT22;9177;49.156;8.142;2024-03-22T01:47:24;19.00;94.00
18101;DHT22;9177;49.156;8.142;2024-03-22T01:49:53;19.00;94.00
18101;DHT22;9177;49.156;8.142;2024-03-22T01:52:21;19.00;94.00
18101;DHT22;9177;49.156;8.142;2024-03-22T01:54:47;19.00;94.00
18101;DHT22;9177;49.156;8.142;2024-03-22T01:57:16;19.00;94.40
18101;DHT22;9177;49.156;8.142;2024-03-22T01:59:42;19.00;94.40
18101;DHT22;9177;49.156;8.142;2024-03-22T02:02:09;19.00;94.00
18101;DHT22;9177;49.156;8.142;2024-03-22T02:04:37;19.00;94.00
18101;DHT22;9177;49.156;8.142;2024-03-22T02:07:04;19.00;94.00
18101;DHT22;9177;49.156;8.142;2024-03-22T02:09:30;19.00;94.00
18101;DHT22;9177;49.156;8.142;2024-03-22T02:11:57;19.00;93.90
18101;DHT22;9177;49.156;8.142;2024-03-22T02:14:24;19.00;93.90
18101;DHT22;9177;49.156;8.142;2024-03-22T02:16:52;19.00;93.90
18101;DHT22;9177;49.156;8.142;2024-03-22T02:19:17;19.00;93.90
18101;DHT22;9177;49.156;8.142;2024-03-22T02:21:44;18.90;93.90
18101;DHT22;9177;49.156;8.142;2024-03-22T02:24:12;18.90;93.90
18101;DHT22;9177;49.156;8.142;2024-03-22T02:26:39;18.90;93.90
18101;DHT22;9177;49.156;8.142;2024-03-22T02:29:05;18.90;93.90
18101;DHT22;9177;49.156;8.142;2024-03-22T02:31:31;18.90;93.90
18101;DHT22;9177;49.156;8.142;2024-03-22T02:33:58;18.90;93.90
18101;DHT22;9177;49.156;8.142;2024-03-22T02:36:26;18.90;93.80
18101;DHT22;9177;49.156;8.142;2024-03-22T02:38:52;18.90;93.80
18101;DHT22;9177;49.156;8.142;2024-03-22T02:41:20;18.90;93.80
18101;DHT22;9177;49.156;8.142;2024-03-22T02:43:46;18.90;93.80
18101;DHT22;9177;49.156;8.142;2024-03-22T02:46:13;18.90;93.80
18101;DHT22;9177;49.156;8.142;2024-03-22T02:48:39;18.90;93.70
18101;DHT22;9177;49.156;8.142;2024-03-22T02:51:06;18.90;93.70
18101;DHT22;9177;49.156;8.142;2024-03-22T02:53:32;18.90;93.70
18101;DHT22;9177;49.156;8.142;2024-03-22T02:56:00;18.90;93.70
18101;DHT22;9177;49.156;8.142;2024-03-22T02:58:27;18.90;93.70
18101;DHT22;9177;49.156;8.142;2024-03-22T03:00:54;18.90;93.70
18101;DHT22;9177;49.156;8.142;2024-03-22T03:03:20;18.90;93.70
18101;DHT22;9177;49.156;8.142;2024-03-22T03:05:47;18.90;93.70
18101;DHT22;9177;49.156;8.142;2024-03-22T03:08:13;18.90;93.70
18101;DHT22;9177;49.156;8.142;2024-03-22T03:10:42;18.80;93.70
18101;DHT22;9177;49.156;8.142;2024-03-22T03:13:07;18.90;93.70
18101;DHT22;9177;49.156;8.142;2024-03-22T03:15:36;18.80;93.70
18101;DHT22;9177;49.156;8.142;2024-03-22T03:18:02;18.80;93.70
18101;DHT22;9177;49.156;8.142;2024-03-22T03:20:29;18.80;93.70
18101;DHT22;9177;49.156;8.142;2024-03-22T03:22:55;18.80;93.70
18101;DHT22;9177;49.156;8.142;2024-03-22T03:25:25;18.80;93.70
18101;DHT22;9177;49.156;8.142;2024-03-22T03:27:51;18.70;93.70
18101;DHT22;9177;49.156;8.142;2024-03-22T03:30:17;18.70;93.70
18101;DHT22;9177;49.156;8.142;2024-03-22T03:32:45;18.70;93.70
18101;DHT22;9177;49.156;8.142;2024-03-22T03:35:12;18.70;93.70
18101;DHT22;9177;49.156;8.142;2024-03-22T03:37:38;18.70;93.70
18101;DHT22;9177;49.156;8.142;2024-03-22T03:40:06;18.70;93.60
18101;DHT22;9177;49.156;8.142;2024-03-22T03:42:32;18.80;93.70
18101;DHT22;9177;49.156;8.142;2024-03-22T03:44:59;18.80;93.70
18101;DHT22;9177;49.156;8.142;2024-03-22T03:47:25;18.70;93.60
18101;DHT22;9177;49.156;8.142;2024-03-22T03:49:53;18.80;93.60
18101;DHT22;9177;49.156;8.142;2024-03-22T03:52:19;18.80;93.60
18101;DHT22;9177;49.156;8.142;2024-03-22T03:54:46;18.80;93.60
18101;DHT22;9177;49.156;8.142;2024-03-22T03:57:12;18.80;93.60
18101;DHT22;9177;49.156;8.142;2024-03-22T03:59:38;18.70;93.60
18101;DHT22;9177;49.156;8.142;2024-03-22T04:02:04;18.70;93.60
18101;DHT22;9177;49.156;8.142;2024-03-22T04:04:31;18.70;93.60
18101;DHT22;9177;49.156;8.142;2024-03-22T04:06:59;18.70;93.60
18101;DHT22;9177;49.156;8.142;2024-03-22T04:09:26;18.70;93.60
18101;DHT22;9177;49.156;8.142;2024-03-22T04:11:52;18.70;93.60
18101;DHT22;9177;49.156;8.142;2024-03-22T04:14:18;18.70;94.00
18101;DHT22;9177;49.156;8.142;2024-03-22T04:16:44;18.70;93.60
18101;DHT22;9177;49.156;8.142;2024-03-22T04:19:11;18.70;93.60
18101;DHT22;9177;49.156;8.142;2024-03-22T04:21:37;18.70;93.60
18101;DHT22;9177;49.156;8.142;2024-03-22T04:24:05;18.70;93.60
18101;DHT22;9177;49.156;8.142;2024-03-22T04:26:31;18.70;93.60
18101;DHT22;9177;49.156;8.142;2024-03-22T04:28:59;18.70;93.60
18101;DHT22;9177;49.156;8.142;2024-03-22T04:31:24;18.60;93.60
18101;DHT22;9177;49.156;8.142;2024-03-22T04:33:51;18.70;93.60
18101;DHT22;9177;49.156;8.142;2024-03-22T04:36:17;18.70;93.60
18101;DHT22;9177;49.156;8.142;2024-03-22T04:38:44;18.70;93.60
18101;DHT22;9177;49.156;8.142;2024-03-22T04:41:12;18.60;93.60
18101;DHT22;9177;49.156;8.142;2024-03-22T04:43:39;18.60;93.60
18101;DHT22;9177;49.156;8.142;2024-03-22T04:46:08;18.60;93.60
18101;DHT22;9177;49.156;8.142;2024-03-22T04:48:34;18.60;93.70
18101;DHT22;9177;49.156;8.142;2024-03-22T04:51:01;18.60;93.60
18101;DHT22;9177;49.156;8.142;2024-03-22T04:53:27;18.60;93.70
18101;DHT22;9177;49.156;8.142;2024-03-22T04:55:54;18.60;93.60
18101;DHT22;9177;49.156;8.142;2024-03-22T04:58:22;18.50;93.60
18101;DHT22;9177;49.156;8.142;2024-03-22T05:00:56;18.60;93.60
18101;DHT22;9177;49.156;8.142;2024-03-22T05:03:22;18.60;93.70
18101;DHT22;9177;49.156;8.142;2024-03-22T05:05:50;18.60;93.60
18101;DHT22;9177;49.156;8.142;2024-03-22T05:08:16;18.60;93.60
18101;DHT22;9177;49.156;8.142;2024-03-22T05:10:43;18.60;93.60
18101;DHT22;9177;49.156;8.142;2024-03-22T05:13:09;18.60;93.50
18101;DHT22;9177;49.156;8.142;2024-03-22T05:15:37;18.70;93.50
18101;DHT22;9177;49.156;8.142;2024-03-22T05:18:04;18.70;93.50
18101;DHT22;9177;49.156;8.142;2024-03-22T05:20:31;18.70;93.40
18101;DHT22;9177;49.156;8.142;2024-03-22T05:22:57;18.70;93.40
18101;DHT22;9177;49.156;8.142;2024-03-22T05:25:23;18.80;93.40
18101;DHT22;9177;49.156;8.142;2024-03-22T05:27:49;18.80;93.30
18101;DHT22;9177;49.156;8.142;2024-03-22T05:30:16;18.80;93.30
18101;DHT22;9177;49.156;8.142;2024-03-22T05:32:43;18.80;93.20
18101;DHT22;9177;49.156;8.142;2024-03-22T05:35:10;18.90;93.20
18101;DHT22;9177;49.156;8.142;2024-03-22T05:37:36;18.90;93.20
18101;DHT22;9177;49.156;8.142;2024-03-22T05:40:04;18.90;93.10
18101;DHT22;9177;49.156;8.142;2024-03-22T05:42:30;18.90;93.10
18101;DHT22;9177;49.156;8.142;2024-03-22T05:44:57;18.90;93.10
18101;DHT22;9177;49.156;8.142;2024-03-22T05:47:23;18.90;93.10
18101;DHT22;9177;49.156;8.142;2024-03-22T05:49:51;18.90;93.10
18101;DHT22;9177;49.156;8.142;2024-03-22T05:52:17;18.80;93.10
18101;DHT22;9177;49.156;8.142;2024-03-22T05:54:44;18.90;93.20
18101;DHT22;9177;49.156;8.142;2024-03-22T05:57:11;18.80;93.10
18101;DHT22;9177;49.156;8.142;2024-03-22T05:59:38;18.90;93.10
18101;DHT22;9177;49.156;8.142;2024-03-22T06:02:05;18.90;93.10
18101;DHT22;9177;49.156;8.142;2024-03-22T06:04:32;18.90;93.10
18101;DHT22;9177;49.156;8.142;2024-03-22T06:06:59;18.90;93.10
18101;DHT22;9177;49.156;8.142;2024-03-22T06:09:29;18.90;93.00
18101;DHT22;9177;49.156;8.142;2024-03-22T06:12:03;18.90;93.00
18101;DHT22;9177;49.156;8.142;2024-03-22T06:14:30;18.90;93.00
18101;DHT22;9177;49.156;8.142;2024-03-22T06:16:56;18.90;93.00
18101;DHT22;9177;49.156;8.142;2024-03-22T06:19:23;18.90;93.00
18101;DHT22;9177;49.156;8.142;2024-03-22T06:21:48;19.00;93.00
18101;DHT22;9177;49.156;8.142;2024-03-22T06:24:17;18.90;93.00
18101;DHT22;9177;49.156;8.142;2024-03-22T06:26:43;18.90;93.00
18101;DHT22;9177;49.156;8.142;2024-03-22T06:29:09;18.90;93.10
18101;DHT22;9177;49.156;8.142;2024-03-22T06:31:35;18.90;93.10
18101;DHT22;9177;49.156;8.142;2024-03-22T06:34:02;18.90;93.10
18101;DHT22;9177;49.156;8.142;2024-03-22T06:36:28;18.90;93.20
18101;DHT22;9177;49.156;8.142;2024-03-22T06:38:55;18.90;93.20
18101;DHT22;9177;49.156;8.142;2024-03-22T06:41:23;18.90;93.20
18101;DHT22;9177;49.156;8.142;2024-03-22T06:43:50;18.80;93.20
18101;DHT22;9177;49.156;8.142;2024-03-22T06:46:15;18.80;93.20
18101;DHT22;9177;49.156;8.142;2024-03-22T06:48:43;18.80;93.30
18101;DHT22;9177;49.156;8.142;2024-03-22T06:51:08;18.80;93.70
18101;DHT22;9177;49.156;8.142;2024-03-22T06:53:35;18.80;93.30
18101;DHT22;9177;49.156;8.142;2024-03-22T06:56:01;18.80;93.30
18101;DHT22;9177;49.156;8.142;2024-03-22T06:58:30;18.80;93.30
18101;DHT22;9177;49.156;8.142;2024-03-22T07:00:56;18.90;93.30
18101;DHT22;9177;49.156;8.142;2024-03-22T07:03:23;18.80;93.30
18101;DHT22;9177;49.156;8.142;2024-03-22T07:05:49;18.80;93.30
18101;DHT22;9177;49.156;8.142;2024-03-22T07:08:16;18.90;93.40
18101;DHT22;9177;49.156;8.142;2024-03-22T07:10:42;18.90;93.80
18101;DHT22;9177;49.156;8.142;2024-03-22T07:13:10;18.90;93.40
18101;DHT22;9177;49.156;8.142;2024-03-22T07:15:38;18.90;93.40
18101;DHT22;9177;49.156;8.142;2024-03-22T07:18:05;19.00;93.30
18101;DHT22;9177;49.156;8.142;2024-03-22T07:20:31;19.00;93.20
18101;DHT22;9177;49.156;8.142;2024-03-22T07:22:58;19.10;93.20
18101;DHT22;9177;49.156;8.142;2024-03-22T07:25:24;19.10;93.20
18101;DHT22;9177;49.156;8.142;2024-03-22T07:27:51;19.10;93.20
18101;DHT22;9177;49.156;8.142;2024-03-22T07:30:17;19.10;93.20
18101;DHT22;9177;49.156;8.142;2024-03-22T07:32:47;19.20;93.20
18101;DHT22;9177;49.156;8.142;2024-03-22T07:35:13;19.20;93.40
18101;DHT22;9177;49.156;8.142;2024-03-22T07:37:40;19.20;93.10
18101;DHT22;9177;49.156;8.142;2024-03-22T07:40:07;19.20;93.20
18101;DHT22;9177;49.156;8.142;2024-03-22T07:42:34;19.30;93.20
18101;DHT22;9177;49.156;8.142;2024-03-22T07:45:00;19.30;93.20
18101;DHT22;9177;49.156;8.142;2024-03-22T07:47:27;19.30;93.30
18101;DHT22;9177;49.156;8.142;2024-03-22T07:49:54;19.30;93.30
18101;DHT22;9177;49.156;8.142;2024-03-22T07:52:21;19.30;93.30
18101;DHT22;9177;49.156;8.142;2024-03-22T07:54:47;19.30;93.40
18101;DHT22;9177;49.156;8.142;2024-03-22T07:57:14;19.30;93.50
18101;DHT22;9177;49.156;8.142;2024-03-22T07:59:40;19.30;93.50
18101;DHT22;9177;49.156;8.142;2024-03-22T08:02:09;19.40;93.40
18101;DHT22;9177;49.156;8.142;2024-03-22T08:04:35;19.40;93.50
18101;DHT22;9177;49.156;8.142;2024-03-22T08:07:04;19.40;93.40
18101;DHT22;9177;49.156;8.142;2024-03-22T08:09:30;19.40;93.50
18101;DHT22;9177;49.156;8.142;2024-03-22T08:11:56;19.40;93.50
18101;DHT22;9177;49.156;8.142;2024-03-22T08:14:23;19.40;93.60
18101;DHT22;9177;49.156;8.142;2024-03-22T08:16:49;19.40;93.60
18101;DHT22;9177;49.156;8.142;2024-03-22T08:19:16;19.40;93.60
18101;DHT22;9177;49.156;8.142;2024-03-22T08:21:42;19.40;93.60
18101;DHT22;9177;49.156;8.142;2024-03-22T08:24:11;19.40;93.70
18101;DHT22;9177;49.156;8.142;2024-03-22T08:26:37;19.40;93.70
18101;DHT22;9177;49.156;8.142;2024-03-22T08:29:03;19.40;93.80
18101;DHT22;9177;49.156;8.142;2024-03-22T08:31:29;19.30;93.90
18101;DHT22;9177;49.156;8.142;2024-03-22T08:33:56;19.30;94.00
18101;DHT22;9177;49.156;8.142;2024-03-22T08:36:22;19.30;94.00
18101;DHT22;9177;49.156;8.142;2024-03-22T08:38:50;19.30;94.00
18101;DHT22;9177;49.156;8.142;2024-03-22T08:41:18;19.30;93.90
18101;DHT22;9177;49.156;8.142;2024-03-22T08:43:44;19.40;93.90
18101;DHT22;9177;49.156;8.142;2024-03-22T08:46:11;19.30;94.00
18101;DHT22;9177;49.156;8.142;2024-03-22T08:48:38;19.20;94.00
18101;DHT22;9177;49.156;8.142;2024-03-22T08:51:04;19.30;94.00
18101;DHT22;9177;49.156;8.142;2024-03-22T08:53:31;19.30;94.00
18101;DHT22;9177;49.156;8.142;2024-03-22T08:55:57;19.30;94.00
18101;DHT22;9177;49.156;8.142;2024-03-22T08:58:26;19.30;94.00
18101;DHT22;9177;49.156;8.142;2024-03-22T09:00:52;19.30;94.00
18101;DHT22;9177;49.156;8.142;2024-03-22T09:03:19;19.30;94.00
18101;DHT22;9177;49.156;8.142;2024-03-22T09:05:47;19.20;94.00
18101;DHT22;9177;49.156;8.142;2024-03-22T09:08:14;19.20;94.10
18101;DHT22;9177;49.156;8.142;2024-03-22T09:10:41;19.20;94.10
18101;DHT22;9177;49.156;8.142;2024-03-22T09:13:08;19.30;94.00
18101;DHT22;9177;49.156;8.142;2024-03-22T09:15:39;19.30;94.10
18101;DHT22;9177;49.156;8.142;2024-03-22T09:18:06;19.30;94.20
18101;DHT22;9177;49.156;8.142;2024-03-22T09:20:32;19.20;94.30
18101;DHT22;9177;49.156;8.142;2024-03-22T09:22:59;19.30;94.30
18101;DHT22;9177;49.156;8.142;2024-03-22T09:25:25;19.30;94.30
18101;DHT22;9177;49.156;8.142;2024-03-22T09:27:52;19.30;94.40
18101;DHT22;9177;49.156;8.142;2024-03-22T09:30:18;19.40;94.20
18101;DHT22;9177;49.156;8.142;2024-03-22T09:32:46;19.40;94.40
18101;DHT22;9177;49.156;8.142;2024-03-22T09:35:12;19.40;94.20
18101;DHT22;9177;49.156;8.142;2024-03-22T09:37:40;19.40;94.20
18101;DHT22;9177;49.156;8.142;2024-03-22T09:40:07;19.40;94.20
18101;DHT22;9177;49.156;8.142;2024-03-22T09:42:38;19.50;94.20
18101;DHT22;9177;49.156;8.142;2024-03-22T09:45:08;19.50;94.10
18101;DHT22;9177;49.156;8.142;2024-03-22T09:47:36;19.50;94.20
18101;DHT22;9177;49.156;8.142;2024-03-22T09:50:06;19.50;94.20
18101;DHT22;9177;49.156;8.142;2024-03-22T09:52:35;19.50;94.20
18101;DHT22;9177;49.156;8.142;2024-03-22T09:55:04;19.50;94.40
18101;DHT22;9177;49.156;8.142;2024-03-22T09:57:32;19.50;94.30
18101;DHT22;9177;49.156;8.142;2024-03-22T09:59:59;19.50;94.40
18101;DHT22;9177;49.156;8.142;2024-03-22T10:02:27;19.50;94.20
18101;DHT22;9177;49.156;8.142;2024-03-22T10:04:53;19.50;94.30
18101;DHT22;9177;49.156;8.142;2024-03-22T10:07:21;19.60;94.40
18101;DHT22;9177;49.156;8.142;2024-03-22T10:09:47;19.50;94.20
18101;DHT22;9177;49.156;8.142;2024-03-22T10:12:16;19.60;94.20
18101;DHT22;9177;49.156;8.142;2024-03-22T10:14:43;19.60;94.30
18101;DHT22;9177;49.156;8.142;2024-03-22T10:17:10;19.60;94.40
18101;DHT22;9177;49.156;8.142;2024-03-22T10:19:36;19.50;94.30
18101;DHT22;9177;49.156;8.142;2024-03-22T10:22:04;19.50;94.50
18101;DHT22;9177;49.156;8.142;2024-03-22T10:24:31;19.50;94.40
18101;DHT22;9177;49.156;8.142;2024-03-22T10:26:59;19.50;94.40
18101;DHT22;9177;49.156;8.142;2024-03-22T10:29:25;19.50;94.80
18101;DHT22;9177;49.156;8.142;2024-03-22T10:31:53;19.50;94.50
18101;DHT22;9177;49.156;8.142;2024-03-22T10:34:20;19.50;94.70
18101;DHT22;9177;49.156;8.142;2024-03-22T10:36:48;19.50;94.60
18101;DHT22;9177;49.156;8.142;2024-03-22T10:39:16;19.50;94.50
18101;DHT22;9177;49.156;8.142;2024-03-22T10:41:46;19.50;94.50
18101;DHT22;9177;49.156;8.142;2024-03-22T10:44:12;19.50;94.50
18101;DHT22;9177;49.156;8.142;2024-03-22T10:46:43;19.50;94.40
18101;DHT22;9177;49.156;8.142;2024-03-22T10:49:12;19.50;94.50
18101;DHT22;9177;49.156;8.142;2024-03-22T10:51:40;19.50;94.40
18101;DHT22;9177;49.156;8.142;2024-03-22T10:54:08;19.60;94.40
18101;DHT22;9177;49.156;8.142;2024-03-22T10:56:35;19.60;94.40
18101;DHT22;9177;49.156;8.142;2024-03-22T10:59:04;19.60;94.40
18101;DHT22;9177;49.156;8.142;2024-03-22T11:01:31;19.60;94.50
18101;DHT22;9177;49.156;8.142;2024-03-22T11:04:05;19.60;94.40
18101;DHT22;9177;49.156;8.142;2024-03-22T11:06:36;19.60;94.40
18101;DHT22;9177;49.156;8.142;2024-03-22T11:09:02;19.60;94.40
18101;DHT22;9177;49.156;8.142;2024-03-22T11:11:31;19.60;94.40
18101;DHT22;9177;49.156;8.142;2024-03-22T11:13:59;19.60;94.40
18101;DHT22;9177;49.156;8.142;2024-03-22T11:16:27;19.60;94.40
18101;DHT22;9177;49.156;8.142;2024-03-22T11:18:53;19.50;94.40
18101;DHT22;9177;49.156;8.142;2024-03-22T11:21:19;19.60;94.30
18101;DHT22;9177;49.156;8.142;2024-03-22T11:23:46;19.60;94.20
18101;DHT22;9177;49.156;8.142;2024-03-22T11:26:13;19.60;94.20
18101;DHT22;9177;49.156;8.142;2024-03-22T11:28:39;19.60;94.20
18101;DHT22;9177;49.156;8.142;2024-03-22T11:31:06;19.70;94.10
18101;DHT22;9177;49.156;8.142;2024-03-22T11:33:33;19.70;94.10
18101;DHT22;9177;49.156;8.142;2024-03-22T11:36:01;19.70;94.00
18101;DHT22;9177;49.156;8.142;2024-03-22T11:38:27;19.70;94.00
18101;DHT22;9177;49.156;8.142;2024-03-22T11:40:57;19.80;94.00
18101;DHT22;9177;49.156;8.142;2024-03-22T11:43:26;19.80;94.00
18101;DHT22;9177;49.156;8.142;2024-03-22T11:45:54;19.90;94.00
18101;DHT22;9177;49.156;8.142;2024-03-22T11:48:21;19.90;94.30
18101;DHT22;9177;49.156;8.142;2024-03-22T11:50:49;19.90;93.90
18101;DHT22;9177;49.156;8.142;2024-03-22T11:53:16;19.90;93.90
18101;DHT22;9177;49.156;8.142;2024-03-22T11:55:43;19.90;93.90
18101;DHT22;9177;49.156;8.142;2024-03-22T11:58:09;20.00;93.90
18101;DHT22;9177;49.156;8.142;2024-03-22T12:00:36;20.00;93.90
18101;DHT22;9177;49.156;8.142;2024-03-22T12:03:04;20.00;93.90
18101;DHT22;9177;49.156;8.142;2024-03-22T12:05:31;20.00;94.00
18101;DHT22;9177;49.156;8.142;2024-03-22T12:07:58;20.10;94.00
18101;DHT22;9177;49.156;8.142;2024-03-22T12:10:26;20.10;94.10
18101;DHT22;9177;49.156;8.142;2024-03-22T12:12:51;20.00;94.40
18101;DHT22;9177;49.156;8.142;2024-03-22T12:15:19;20.00;94.80
18101;DHT22;9177;49.156;8.142;2024-03-22T12:17:45;20.00;94.80
18101;DHT22;9177;49.156;8.142;2024-03-22T12:20:12;20.00;94.80
18101;DHT22;9177;49.156;8.142;2024-03-22T12:22:40;20.10;94.90
18101;DHT22;9177;49.156;8.142;2024-03-22T12:25:09;20.10;95.00
18101;DHT22;9177;49.156;8.142;2024-03-22T12:27:37;20.10;95.30
18101;DHT22;9177;49.156;8.142;2024-03-22T12:30:05;20.10;95.00
18101;DHT22;9177;49.156;8.142;2024-03-22T12:32:32;20.20;95.00
18101;DHT22;9177;49.156;8.142;2024-03-22T12:34:59;20.30;95.00
18101;DHT22;9177;49.156;8.142;2024-03-22T12:37:24;20.30;95.10
18101;DHT22;9177;49.156;8.142;2024-03-22T12:39:54;20.30;95.10
18101;DHT22;9177;49.156;8.142;2024-03-22T12:42:22;20.30;95.00
18101;DHT22;9177;49.156;8.142;2024-03-22T12:44:49;20.40;95.00
18101;DHT22;9177;49.156;8.142;2024-03-22T12:47:15;20.40;95.10
18101;DHT22;9177;49.156;8.142;2024-03-22T12:49:42;20.50;95.00
18101;DHT22;9177;49.156;8.142;2024-03-22T12:52:08;20.60;94.80
18101;DHT22;9177;49.156;8.142;2024-03-22T12:54:38;20.70;94.90
18101;DHT22;9177;49.156;8.142;2024-03-22T12:57:04;20.70;94.90
18101;DHT22;9177;49.156;8.142;2024-03-22T12:59:32;20.70;94.80
18101;DHT22;9177;49.156;8.142;2024-03-22T13:01:59;20.60;94.90
18101;DHT22;9177;49.156;8.142;2024-03-22T13:04:27;20.60;94.90
18101;DHT22;9177;49.156;8.142;2024-03-22T13:06:53;20.50;95.00
18101;DHT22;9177;49.156;8.142;2024-03-22T13:09:19;20.40;94.90
18101;DHT22;9177;49.156;8.142;2024-03-22T13:11:47;20.40;94.90
18101;DHT22;9177;49.156;8.142;2024-03-22T13:14:14;20.40;95.00
18101;DHT22;9177;49.156;8.142;2024-03-22T13:16:41;20.40;95.00
18101;DHT22;9177;49.156;8.142;2024-03-22T13:19:08;20.50;95.00
18101;DHT22;9177;49.156;8.142;2024-03-22T13:21:37;20.50;95.00
18101;DHT22;9177;49.156;8.142;2024-03-22T13:24:04;20.50;94.90
18101;DHT22;9177;49.156;8.142;2024-03-22T13:26:30;20.60;94.90
18101;DHT22;9177;49.156;8.142;2024-03-22T13:28:57;20.60;95.00
18101;DHT22;9177;49.156;8.142;2024-03-22T13:31:23;20.60;95.00
18101;DHT22;9177;49.156;8.142;2024-03-22T13:33:52;20.60;94.90
18101;DHT22;9177;49.156;8.142;2024-03-22T13:36:18;20.70;94.70
18101;DHT22;9177;49.156;8.142;2024-03-22T13:38:45;20.80;94.50
18101;DHT22;9177;49.156;8.142;2024-03-22T13:41:11;21.10;94.30
18101;DHT22;9177;49.156;8.142;2024-03-22T13:43:38;21.20;94.10
18101;DHT22;9177;49.156;8.142;2024-03-22T13:46:05;21.30;94.00
18101;DHT22;9177;49.156;8.142;2024-03-22T13:48:32;21.40;93.80
18101;DHT22;9177;49.156;8.142;2024-03-22T13:51:00;21.50;93.60
18101;DHT22;9177;49.156;8.142;2024-03-22T13:53:27;21.40;93.50
18101;DHT22;9177;49.156;8.142;2024-03-22T13:55:53;21.40;93.60
18101;DHT22;9177;49.156;8.142;2024-03-22T13:58:20;21.30;93.70
18101;DHT22;9177;49.156;8.142;2024-03-22T14:00:46;21.20;93.80
18101;DHT22;9177;49.156;8.142;2024-03-22T14:03:13;21.20;93.90
18101;DHT22;9177;49.156;8.142;2024-03-22T14:05:39;21.10;93.90
18101;DHT22;9177;49.156;8.142;2024-03-22T14:08:07;21.10;93.90
18101;DHT22;9177;49.156;8.142;2024-03-22T14:10:33;21.10;93.90
18101;DHT22;9177;49.156;8.142;2024-03-22T14:13:00;21.00;94.00
18101;DHT22;9177;49.156;8.142;2024-03-22T14:15:27;21.00;94.00
18101;DHT22;9177;49.156;8.142;2024-03-22T14:17:57;21.00;94.10
18101;DHT22;9177;49.156;8.142;2024-03-22T14:20:23;21.00;94.10
18101;DHT22;9177;49.156;8.142;2024-03-22T14:22:50;20.90;94.10
18101;DHT22;9177;49.156;8.142;2024-03-22T14:25:18;20.90;94.10
18101;DHT22;9177;49.156;8.142;2024-03-22T14:27:44;20.80;94.20
18101;DHT22;9177;49.156;8.142;2024-03-22T14:30:12;20.80;94.20
18101;DHT22;9177;49.156;8.142;2024-03-22T14:32:41;20.70;94.20
18101;DHT22;9177;49.156;8.142;2024-03-22T14:35:07;20.70;94.20
18101;DHT22;9177;49.156;8.142;2024-03-22T14:37:35;20.70;94.30
18101;DHT22;9177;49.156;8.142;2024-03-22T14:40:01;20.60;94.30
18101;DHT22;9177;49.156;8.142;2024-03-22T14:42:34;20.60;94.30
18101;DHT22;9177;49.156;8.142;2024-03-22T14:45:01;20.60;94.30
18101;DHT22;9177;49.156;8.142;2024-03-22T14:47:29;20.60;94.30
18101;DHT22;9177;49.156;8.142;2024-03-22T14:49:54;20.60;94.30
18101;DHT22;9177;49.156;8.142;2024-03-22T14:52:22;20.70;94.30
18101;DHT22;9177;49.156;8.142;2024-03-22T14:54:47;20.70;94.30
18101;DHT22;9177;49.156;8.142;2024-03-22T14:57:14;20.80;94.40
18101;DHT22;9177;49.156;8.142;2024-03-22T14:59:42;20.80;94.30
18101;DHT22;9177;49.156;8.142;2024-03-22T15:02:09;20.80;94.50
18101;DHT22;9177;49.156;8.142;2024-03-22T15:04:35;20.70;94.20
18101;DHT22;9177;49.156;8.142;2024-03-22T15:07:02;20.70;94.30
18101;DHT22;9177;49.156;8.142;2024-03-22T15:09:28;20.70;94.40
18101;DHT22;9177;49.156;8.142;2024-03-22T15:11:55;20.70;94.40
18101;DHT22;9177;49.156;8.142;2024-03-22T15:14:24;20.70;94.50
18101;DHT22;9177;49.156;8.142;2024-03-22T15:16:54;20.70;94.50
18101;DHT22;9177;49.156;8.142;2024-03-22T15:19:21;20.60;94.50
18101;DHT22;9177;49.156;8.142;2024-03-22T15:21:48;20.60;94.60
18101;DHT22;9177;49.156;8.142;2024-03-22T15:24:14;20.60;94.70
18101;DHT22;9177;49.156;8.142;2024-03-22T15:26:42;20.50;94.60
18101;DHT22;9177;49.156;8.142;2024-03-22T15:29:08;20.50;94.60
18101;DHT22;9177;49.156;8.142;2024-03-22T15:31:35;20.50;94.60
18101;DHT22;9177;49.156;8.142;2024-03-22T15:34:02;20.60;95.00
18101;DHT22;9177;49.156;8.142;2024-03-22T15:36:31;20.60;94.90
18101;DHT22;9177;49.156;8.142;2024-03-22T15:38:56;20.50;95.00
18101;DHT22;9177;49.156;8.142;2024-03-22T15:41:24;20.50;94.70
18101;DHT22;9177;49.156;8.142;2024-03-22T15:43:49;20.50;94.90